Terminal Aerodrome Forecast
Issued by NWS

Home | Current Version | Previous Version | Text Only | Print | Product List | Glossary On
Versions: 1 2 3 4 5 6 7 8 9 10 11 12 13 14 15 16 17 18 19 20 21 22 23 24
982
FTUS46 KLOX 232340
TAFSBP
TAF
KSBP 232340Z 2400/2424 31018G22KT P6SM SKC
     FM240300 32008KT P6SM BKN250
     FM240600 VRB03KT P6SM SCT120 BKN250
     FM241800 20005KT P6SM BKN100 OVC250
     FM242100 26010KT P6SM VCSH SCT070 OVC100=

USA.gov is the U.S. government's official web portal to all federal, state and local government web resources and services.